Time;durP1;ratioP1;P1;durP2;ratioP2;P2;SDS_P1;SDS_P2;PMS_P1;PMS_P2;Temp;Humidity;BMP_temperature;BMP_pressure;BME280_temperature;BME280_humidity;BME280_pressure;Samples;Min_cycle;Max_cycle;Signal;HPM_P1;HPM_P2
2021/12/11 00:00:14;;;;;;;;;;;2.0;76.8;;;;;;;;;
2021/12/11 00:05:10;;;;;;;;;;;2.1;76.5;;;;;;;;;
2021/12/11 00:10:10;;;;;;;;;;;2.1;76.3;;;;;;;;;
2021/12/11 00:15:11;;;;;;;;;;;2.1;76.7;;;;;;;;;
2021/12/11 00:20:13;;;;;;;;;;;2.0;76.7;;;;;;;;;
2021/12/11 00:25:09;;;;;;;;;;;2.0;76.8;;;;;;;;;
2021/12/11 00:30:10;;;;;;;;;;;2.1;76.2;;;;;;;;;
2021/12/11 00:35:09;;;;;;;;;;;2.0;76.0;;;;;;;;;
2021/12/11 00:40:10;;;;;;;;;;;2.1;75.9;;;;;;;;;
2021/12/11 00:45:09;;;;;;;;;;;2.1;76.3;;;;;;;;;
2021/12/11 00:55:17;;;;;;;;;;;2.0;75.6;;;;;;;;;
2021/12/11 01:00:10;;;;;;;;;;;2.1;75.7;;;;;;;;;
2021/12/11 01:05:09;;;;;;;;;;;2.1;75.7;;;;;;;;;
2021/12/11 01:10:10;;;;;;;;;;;2.1;75.8;;;;;;;;;
2021/12/11 01:15:13;;;;;;;;;;;2.1;75.5;;;;;;;;;
2021/12/11 01:20:10;;;;;;;;;;;2.1;75.7;;;;;;;;;
2021/12/11 01:25:09;;;;;;;;;;;2.1;75.6;;;;;;;;;
2021/12/11 01:30:09;;;;;;;;;;;2.1;75.1;;;;;;;;;
2021/12/11 01:35:09;;;;;;;;;;;2.2;75.1;;;;;;;;;
2021/12/11 01:40:08;;;;;;;;;;;2.2;75.0;;;;;;;;;
2021/12/11 01:45:09;;;;;;;;;;;2.0;75.1;;;;;;;;;
2021/12/11 01:50:11;;;;;;;;;;;2.1;75.4;;;;;;;;;
2021/12/11 01:55:08;;;;;;;;;;;2.2;75.0;;;;;;;;;
2021/12/11 02:00:10;;;;;;;;;;;2.1;74.9;;;;;;;;;
2021/12/11 02:05:09;;;;;;;;;;;2.1;74.9;;;;;;;;;
2021/12/11 02:10:14;;;;;;;;;;;2.1;74.7;;;;;;;;;
2021/12/11 02:15:09;;;;;;;;;;;2.1;74.8;;;;;;;;;
2021/12/11 02:20:09;;;;;;;;;;;2.1;74.8;;;;;;;;;
2021/12/11 02:25:09;;;;;;;;;;;2.1;74.7;;;;;;;;;
2021/12/11 02:30:15;;;;;;;;;;;2.1;74.6;;;;;;;;;
2021/12/11 02:35:12;;;;;;;;;;;2.1;74.7;;;;;;;;;
2021/12/11 02:40:13;;;;;;;;;;;2.0;74.8;;;;;;;;;
2021/12/11 02:45:09;;;;;;;;;;;2.1;74.4;;;;;;;;;
2021/12/11 02:50:10;;;;;;;;;;;2.1;74.4;;;;;;;;;
2021/12/11 02:55:09;;;;;;;;;;;2.1;74.3;;;;;;;;;
2021/12/11 03:00:12;;;;;;;;;;;2.2;74.3;;;;;;;;;
2021/12/11 03:05:11;;;;;;;;;;;2.1;74.4;;;;;;;;;
2021/12/11 03:10:09;;;;;;;;;;;2.1;74.3;;;;;;;;;
2021/12/11 03:15:08;;;;;;;;;;;2.1;74.4;;;;;;;;;
2021/12/11 03:20:09;;;;;;;;;;;2.1;74.4;;;;;;;;;
2021/12/11 03:25:10;;;;;;;;;;;2.1;74.8;;;;;;;;;
2021/12/11 03:30:08;;;;;;;;;;;2.0;74.8;;;;;;;;;
2021/12/11 03:35:08;;;;;;;;;;;2.0;75.1;;;;;;;;;
2021/12/11 03:40:08;;;;;;;;;;;2.1;75.0;;;;;;;;;
2021/12/11 03:45:09;;;;;;;;;;;2.0;75.1;;;;;;;;;
2021/12/11 03:50:11;;;;;;;;;;;2.1;75.4;;;;;;;;;
2021/12/11 03:55:08;;;;;;;;;;;2.0;75.6;;;;;;;;;
2021/12/11 04:00:10;;;;;;;;;;;2.0;75.7;;;;;;;;;
2021/12/11 04:05:08;;;;;;;;;;;2.1;75.7;;;;;;;;;
2021/12/11 04:10:09;;;;;;;;;;;1.9;76.3;;;;;;;;;
2021/12/11 04:15:10;;;;;;;;;;;1.9;77.0;;;;;;;;;
2021/12/11 04:20:09;;;;;;;;;;;1.9;77.7;;;;;;;;;
2021/12/11 04:25:08;;;;;;;;;;;1.8;78.9;;;;;;;;;
2021/12/11 04:30:10;;;;;;;;;;;1.8;79.5;;;;;;;;;
2021/12/11 04:35:09;;;;;;;;;;;1.7;80.4;;;;;;;;;
2021/12/11 04:40:10;;;;;;;;;;;1.7;80.9;;;;;;;;;
2021/12/11 04:45:09;;;;;;;;;;;1.5;81.3;;;;;;;;;
2021/12/11 04:50:15;;;;;;;;;;;1.5;82.0;;;;;;;;;
2021/12/11 04:55:20;;;;;;;;;;;1.5;82.5;;;;;;;;;
2021/12/11 05:00:16;;;;;;;;;;;1.5;81.9;;;;;;;;;
2021/12/11 05:05:18;;;;;;;;;;;1.5;82.2;;;;;;;;;
2021/12/11 05:15:10;;;;;;;;;;;1.5;82.3;;;;;;;;;
2021/12/11 05:20:10;;;;;;;;;;;1.5;82.4;;;;;;;;;
2021/12/11 05:25:09;;;;;;;;;;;1.4;82.5;;;;;;;;;
2021/12/11 05:30:10;;;;;;;;;;;1.4;83.2;;;;;;;;;
2021/12/11 05:35:07;;;;;;;;;;;1.4;82.9;;;;;;;;;
2021/12/11 05:40:09;;;;;;;;;;;1.4;83.1;;;;;;;;;
2021/12/11 05:45:07;;;;;;;;;;;1.4;83.2;;;;;;;;;
2021/12/11 05:50:09;;;;;;;;;;;1.5;82.8;;;;;;;;;
2021/12/11 05:55:10;;;;;;;;;;;1.4;83.1;;;;;;;;;
2021/12/11 06:00:09;;;;;;;;;;;1.4;82.7;;;;;;;;;
2021/12/11 06:05:07;;;;;;;;;;;1.4;82.7;;;;;;;;;
2021/12/11 06:15:08;;;;;;;;;;;1.6;84.9;;;;;;;;;
2021/12/11 06:20:08;;;;;;;;;;;2.0;83.5;;;;;;;;;
2021/12/11 06:25:08;;;;;;;;;;;2.1;80.4;;;;;;;;;
2021/12/11 06:30:08;;;;;;;;;;;2.0;79.2;;;;;;;;;
2021/12/11 06:35:11;;;;;;;;;;;1.8;79.6;;;;;;;;;
2021/12/11 06:40:08;;;;;;;;;;;1.8;79.8;;;;;;;;;
2021/12/11 06:45:07;;;;;;;;;;;1.8;79.5;;;;;;;;;
2021/12/11 06:50:09;;;;;;;;;;;1.8;79.0;;;;;;;;;
2021/12/11 06:55:08;;;;;;;;;;;1.8;79.3;;;;;;;;;
2021/12/11 07:00:08;;;;;;;;;;;1.8;79.1;;;;;;;;;
2021/12/11 07:05:08;;;;;;;;;;;1.8;79.4;;;;;;;;;
2021/12/11 07:10:09;;;;;;;;;;;1.9;79.1;;;;;;;;;
2021/12/11 07:15:09;;;;;;;;;;;1.8;79.0;;;;;;;;;
2021/12/11 07:20:09;;;;;;;;;;;1.8;79.4;;;;;;;;;
2021/12/11 07:25:12;;;;;;;;;;;1.8;79.1;;;;;;;;;
2021/12/11 07:30:08;;;;;;;;;;;1.8;79.3;;;;;;;;;
2021/12/11 07:35:08;;;;;;;;;;;1.8;79.7;;;;;;;;;
2021/12/11 07:40:08;;;;;;;;;;;1.8;79.7;;;;;;;;;
2021/12/11 07:45:08;;;;;;;;;;;1.8;79.4;;;;;;;;;
2021/12/11 07:50:07;;;;;;;;;;;1.9;79.5;;;;;;;;;
2021/12/11 07:55:09;;;;;;;;;;;1.9;80.2;;;;;;;;;
2021/12/11 08:00:09;;;;;;;;;;;1.5;82.0;;;;;;;;;
2021/12/11 08:05:07;;;;;;;;;;;1.4;82.5;;;;;;;;;
2021/12/11 08:10:09;;;;;;;;;;;1.4;82.8;;;;;;;;;
2021/12/11 08:15:08;;;;;;;;;;;1.3;82.7;;;;;;;;;
2021/12/11 08:20:09;;;;;;;;;;;1.3;82.6;;;;;;;;;
2021/12/11 08:25:09;;;;;;;;;;;1.4;82.4;;;;;;;;;
2021/12/11 08:30:08;;;;;;;;;;;1.4;82.2;;;;;;;;;
2021/12/11 08:35:09;;;;;;;;;;;1.4;82.1;;;;;;;;;
2021/12/11 08:40:10;;;;;;;;;;;1.5;81.7;;;;;;;;;
2021/12/11 08:45:10;;;;;;;;;;;1.5;81.3;;;;;;;;;
2021/12/11 08:50:09;;;;;;;;;;;1.5;80.7;;;;;;;;;
2021/12/11 08:55:09;;;;;;;;;;;1.5;81.1;;;;;;;;;
2021/12/11 09:00:10;;;;;;;;;;;1.6;80.5;;;;;;;;;
2021/12/11 09:05:09;;;;;;;;;;;1.6;80.3;;;;;;;;;
2021/12/11 09:10:10;;;;;;;;;;;1.6;79.7;;;;;;;;;
2021/12/11 09:15:09;;;;;;;;;;;1.6;79.8;;;;;;;;;
2021/12/11 09:20:09;;;;;;;;;;;1.7;79.8;;;;;;;;;
2021/12/11 09:25:11;;;;;;;;;;;1.7;79.6;;;;;;;;;
2021/12/11 09:30:10;;;;;;;;;;;1.8;79.4;;;;;;;;;
2021/12/11 09:35:10;;;;;;;;;;;1.7;79.8;;;;;;;;;
2021/12/11 09:40:09;;;;;;;;;;;1.7;80.1;;;;;;;;;
2021/12/11 09:45:11;;;;;;;;;;;1.7;79.5;;;;;;;;;
2021/12/11 09:50:11;;;;;;;;;;;1.6;79.1;;;;;;;;;
2021/12/11 09:55:12;;;;;;;;;;;1.6;79.5;;;;;;;;;
2021/12/11 10:00:15;;;;;;;;;;;1.6;80.2;;;;;;;;;
2021/12/11 10:05:19;;;;;;;;;;;1.7;79.6;;;;;;;;;
2021/12/11 10:10:11;;;;;;;;;;;1.8;79.9;;;;;;;;;
2021/12/11 10:15:13;;;;;;;;;;;1.9;78.8;;;;;;;;;
2021/12/11 10:20:10;;;;;;;;;;;1.9;79.1;;;;;;;;;
2021/12/11 10:25:11;;;;;;;;;;;1.8;78.0;;;;;;;;;
2021/12/11 10:30:09;;;;;;;;;;;1.9;78.6;;;;;;;;;
2021/12/11 10:35:10;;;;;;;;;;;2.0;78.5;;;;;;;;;
2021/12/11 10:40:09;;;;;;;;;;;2.0;78.9;;;;;;;;;
2021/12/11 10:45:09;;;;;;;;;;;2.0;78.7;;;;;;;;;
2021/12/11 10:50:10;;;;;;;;;;;2.0;78.0;;;;;;;;;
2021/12/11 10:55:09;;;;;;;;;;;2.0;78.3;;;;;;;;;
2021/12/11 11:00:10;;;;;;;;;;;1.9;77.5;;;;;;;;;
2021/12/11 11:05:09;;;;;;;;;;;1.9;77.8;;;;;;;;;
2021/12/11 11:10:10;;;;;;;;;;;1.9;77.6;;;;;;;;;
2021/12/11 11:15:11;;;;;;;;;;;1.8;77.5;;;;;;;;;
2021/12/11 11:20:10;;;;;;;;;;;1.8;77.9;;;;;;;;;
2021/12/11 11:25:11;;;;;;;;;;;1.8;78.3;;;;;;;;;
2021/12/11 11:30:10;;;;;;;;;;;1.8;78.0;;;;;;;;;
2021/12/11 11:35:09;;;;;;;;;;;1.8;77.4;;;;;;;;;
2021/12/11 11:40:09;;;;;;;;;;;1.9;77.5;;;;;;;;;
2021/12/11 11:45:08;;;;;;;;;;;1.9;77.4;;;;;;;;;
2021/12/11 11:50:11;;;;;;;;;;;2.0;77.2;;;;;;;;;
2021/12/11 11:55:09;;;;;;;;;;;2.0;76.6;;;;;;;;;
2021/12/11 12:00:09;;;;;;;;;;;2.0;76.5;;;;;;;;;
2021/12/11 12:05:08;;;;;;;;;;;2.0;76.9;;;;;;;;;
2021/12/11 12:10:09;;;;;;;;;;;2.0;76.7;;;;;;;;;
2021/12/11 12:15:08;;;;;;;;;;;2.0;76.1;;;;;;;;;
2021/12/11 12:20:09;;;;;;;;;;;2.0;76.7;;;;;;;;;
2021/12/11 12:25:08;;;;;;;;;;;2.1;76.3;;;;;;;;;
2021/12/11 12:30:10;;;;;;;;;;;2.1;76.3;;;;;;;;;
2021/12/11 12:35:10;;;;;;;;;;;2.1;75.3;;;;;;;;;
2021/12/11 12:40:10;;;;;;;;;;;2.2;74.8;;;;;;;;;
2021/12/11 12:45:11;;;;;;;;;;;2.2;75.1;;;;;;;;;
2021/12/11 12:50:09;;;;;;;;;;;2.1;75.1;;;;;;;;;
2021/12/11 12:55:10;;;;;;;;;;;2.2;75.4;;;;;;;;;
2021/12/11 13:00:14;;;;;;;;;;;2.2;74.9;;;;;;;;;
2021/12/11 13:05:09;;;;;;;;;;;2.2;74.9;;;;;;;;;
2021/12/11 13:10:09;;;;;;;;;;;2.2;74.5;;;;;;;;;
2021/12/11 13:15:10;;;;;;;;;;;2.1;74.4;;;;;;;;;
2021/12/11 13:20:11;;;;;;;;;;;2.0;74.4;;;;;;;;;
2021/12/11 13:25:14;;;;;;;;;;;2.1;74.9;;;;;;;;;
2021/12/11 13:30:09;;;;;;;;;;;2.0;75.4;;;;;;;;;
2021/12/11 13:35:09;;;;;;;;;;;2.0;75.5;;;;;;;;;
2021/12/11 13:40:10;;;;;;;;;;;2.1;75.4;;;;;;;;;
2021/12/11 13:45:09;;;;;;;;;;;2.0;74.9;;;;;;;;;
2021/12/11 13:50:10;;;;;;;;;;;2.1;75.4;;;;;;;;;
2021/12/11 13:55:08;;;;;;;;;;;2.2;74.5;;;;;;;;;
2021/12/11 14:00:10;;;;;;;;;;;2.1;74.5;;;;;;;;;
2021/12/11 14:10:10;;;;;;;;;;;2.1;74.3;;;;;;;;;
2021/12/11 14:15:07;;;;;;;;;;;2.1;74.2;;;;;;;;;
2021/12/11 14:20:08;;;;;;;;;;;2.0;74.4;;;;;;;;;
2021/12/11 14:25:09;;;;;;;;;;;2.0;74.7;;;;;;;;;
2021/12/11 14:30:10;;;;;;;;;;;2.0;74.7;;;;;;;;;
2021/12/11 14:35:07;;;;;;;;;;;2.0;76.2;;;;;;;;;
2021/12/11 14:40:10;;;;;;;;;;;2.0;75.8;;;;;;;;;
2021/12/11 14:45:10;;;;;;;;;;;2.0;76.7;;;;;;;;;
2021/12/11 14:50:09;;;;;;;;;;;2.0;77.0;;;;;;;;;
2021/12/11 14:55:10;;;;;;;;;;;2.0;75.9;;;;;;;;;
2021/12/11 15:00:11;;;;;;;;;;;2.0;76.7;;;;;;;;;
2021/12/11 15:05:09;;;;;;;;;;;1.9;75.5;;;;;;;;;
2021/12/11 15:10:09;;;;;;;;;;;1.9;75.2;;;;;;;;;
2021/12/11 15:15:08;;;;;;;;;;;1.9;74.5;;;;;;;;;
2021/12/11 15:20:09;;;;;;;;;;;1.8;75.0;;;;;;;;;
2021/12/11 15:25:08;;;;;;;;;;;1.8;75.0;;;;;;;;;
2021/12/11 15:30:09;;;;;;;;;;;1.8;75.1;;;;;;;;;
2021/12/11 15:35:09;;;;;;;;;;;1.7;74.6;;;;;;;;;
2021/12/11 15:40:10;;;;;;;;;;;1.8;74.8;;;;;;;;;
2021/12/11 15:45:09;;;;;;;;;;;1.8;75.2;;;;;;;;;
2021/12/11 15:50:09;;;;;;;;;;;1.8;74.9;;;;;;;;;
2021/12/11 15:55:09;;;;;;;;;;;1.9;75.1;;;;;;;;;
2021/12/11 16:00:08;;;;;;;;;;;1.8;75.7;;;;;;;;;
2021/12/11 16:05:13;;;;;;;;;;;1.8;75.5;;;;;;;;;
2021/12/11 16:10:09;;;;;;;;;;;1.8;75.3;;;;;;;;;
2021/12/11 16:15:10;;;;;;;;;;;1.8;75.8;;;;;;;;;
2021/12/11 16:20:10;;;;;;;;;;;1.8;75.8;;;;;;;;;
2021/12/11 16:25:11;;;;;;;;;;;1.9;75.5;;;;;;;;;
2021/12/11 16:30:09;;;;;;;;;;;1.9;75.5;;;;;;;;;
2021/12/11 16:35:08;;;;;;;;;;;1.8;76.3;;;;;;;;;
2021/12/11 16:40:09;;;;;;;;;;;1.7;76.3;;;;;;;;;
2021/12/11 16:45:09;;;;;;;;;;;1.8;76.8;;;;;;;;;
2021/12/11 16:50:10;;;;;;;;;;;1.7;76.8;;;;;;;;;
2021/12/11 16:55:08;;;;;;;;;;;1.8;76.5;;;;;;;;;
2021/12/11 17:00:10;;;;;;;;;;;1.7;76.9;;;;;;;;;
2021/12/11 17:05:08;;;;;;;;;;;1.8;77.1;;;;;;;;;
2021/12/11 17:10:09;;;;;;;;;;;1.7;76.7;;;;;;;;;
2021/12/11 17:15:08;;;;;;;;;;;1.7;76.2;;;;;;;;;
2021/12/11 17:20:08;;;;;;;;;;;1.7;76.0;;;;;;;;;
2021/12/11 17:25:09;;;;;;;;;;;1.7;75.7;;;;;;;;;
2021/12/11 17:30:08;;;;;;;;;;;1.8;75.5;;;;;;;;;
2021/12/11 17:35:08;;;;;;;;;;;1.8;74.7;;;;;;;;;
2021/12/11 17:40:09;;;;;;;;;;;1.7;74.9;;;;;;;;;
2021/12/11 17:45:09;;;;;;;;;;;1.8;74.3;;;;;;;;;
2021/12/11 17:50:08;;;;;;;;;;;1.7;74.6;;;;;;;;;
2021/12/11 17:55:10;;;;;;;;;;;1.7;74.5;;;;;;;;;
2021/12/11 18:00:10;;;;;;;;;;;1.7;74.7;;;;;;;;;
2021/12/11 18:05:11;;;;;;;;;;;1.7;75.2;;;;;;;;;
2021/12/11 18:10:10;;;;;;;;;;;1.7;75.0;;;;;;;;;
2021/12/11 18:15:09;;;;;;;;;;;1.6;75.1;;;;;;;;;
2021/12/11 18:20:11;;;;;;;;;;;1.6;75.2;;;;;;;;;
2021/12/11 18:25:10;;;;;;;;;;;1.7;74.9;;;;;;;;;
2021/12/11 18:30:08;;;;;;;;;;;1.7;75.4;;;;;;;;;
2021/12/11 18:35:10;;;;;;;;;;;1.6;75.0;;;;;;;;;
2021/12/11 18:40:11;;;;;;;;;;;1.7;75.3;;;;;;;;;
2021/12/11 18:45:08;;;;;;;;;;;1.6;75.7;;;;;;;;;
2021/12/11 18:50:09;;;;;;;;;;;1.6;75.1;;;;;;;;;
2021/12/11 18:55:10;;;;;;;;;;;1.6;75.7;;;;;;;;;
2021/12/11 19:00:14;;;;;;;;;;;1.5;76.3;;;;;;;;;
2021/12/11 19:05:09;;;;;;;;;;;1.5;75.7;;;;;;;;;
2021/12/11 19:10:08;;;;;;;;;;;1.5;75.9;;;;;;;;;
2021/12/11 19:15:11;;;;;;;;;;;1.4;77.0;;;;;;;;;
2021/12/11 19:20:10;;;;;;;;;;;1.5;76.1;;;;;;;;;
2021/12/11 19:25:08;;;;;;;;;;;1.5;76.1;;;;;;;;;
2021/12/11 19:30:10;;;;;;;;;;;1.4;75.8;;;;;;;;;
2021/12/11 19:35:08;;;;;;;;;;;1.5;75.0;;;;;;;;;
2021/12/11 19:40:12;;;;;;;;;;;1.4;75.6;;;;;;;;;
2021/12/11 19:45:08;;;;;;;;;;;1.3;75.4;;;;;;;;;
2021/12/11 19:55:10;;;;;;;;;;;1.3;74.9;;;;;;;;;
2021/12/11 20:00:10;;;;;;;;;;;1.3;74.7;;;;;;;;;
2021/12/11 20:05:09;;;;;;;;;;;1.3;74.6;;;;;;;;;
2021/12/11 20:10:09;;;;;;;;;;;1.3;74.4;;;;;;;;;
2021/12/11 20:15:09;;;;;;;;;;;1.3;74.6;;;;;;;;;
2021/12/11 20:20:09;;;;;;;;;;;1.3;74.9;;;;;;;;;
2021/12/11 20:25:07;;;;;;;;;;;1.1;76.1;;;;;;;;;
2021/12/11 20:30:10;;;;;;;;;;;1.0;75.7;;;;;;;;;
2021/12/11 20:35:07;;;;;;;;;;;1.1;76.0;;;;;;;;;
2021/12/11 20:40:10;;;;;;;;;;;1.2;75.7;;;;;;;;;
2021/12/11 20:45:09;;;;;;;;;;;1.2;75.7;;;;;;;;;
2021/12/11 20:50:12;;;;;;;;;;;1.2;75.9;;;;;;;;;
2021/12/11 20:55:10;;;;;;;;;;;1.2;75.9;;;;;;;;;
2021/12/11 21:00:09;;;;;;;;;;;1.2;76.3;;;;;;;;;
2021/12/11 21:05:09;;;;;;;;;;;1.2;76.7;;;;;;;;;
2021/12/11 21:10:10;;;;;;;;;;;1.3;76.4;;;;;;;;;
2021/12/11 21:15:12;;;;;;;;;;;1.3;76.2;;;;;;;;;
2021/12/11 21:20:09;;;;;;;;;;;1.3;76.4;;;;;;;;;
2021/12/11 21:25:11;;;;;;;;;;;1.3;76.3;;;;;;;;;
2021/12/11 21:30:09;;;;;;;;;;;1.2;76.1;;;;;;;;;
2021/12/11 21:35:09;;;;;;;;;;;1.3;76.6;;;;;;;;;
2021/12/11 21:40:10;;;;;;;;;;;1.2;77.0;;;;;;;;;
2021/12/11 21:45:10;;;;;;;;;;;1.2;77.0;;;;;;;;;
2021/12/11 21:50:10;;;;;;;;;;;1.1;76.4;;;;;;;;;
2021/12/11 21:55:09;;;;;;;;;;;1.2;76.4;;;;;;;;;
2021/12/11 22:00:10;;;;;;;;;;;1.0;76.7;;;;;;;;;
2021/12/11 22:05:10;;;;;;;;;;;1.1;76.7;;;;;;;;;
2021/12/11 22:10:08;;;;;;;;;;;0.9;76.4;;;;;;;;;
2021/12/11 22:15:09;;;;;;;;;;;1.0;76.0;;;;;;;;;
2021/12/11 22:20:15;;;;;;;;;;;1.0;76.0;;;;;;;;;
2021/12/11 22:25:10;;;;;;;;;;;0.8;76.1;;;;;;;;;
2021/12/11 22:30:09;;;;;;;;;;;0.8;76.2;;;;;;;;;
2021/12/11 22:40:10;;;;;;;;;;;0.8;76.3;;;;;;;;;
2021/12/11 22:45:10;;;;;;;;;;;0.8;76.2;;;;;;;;;
2021/12/11 22:50:11;;;;;;;;;;;0.7;77.3;;;;;;;;;
2021/12/11 22:55:15;;;;;;;;;;;0.8;76.6;;;;;;;;;
2021/12/11 23:00:13;;;;;;;;;;;0.8;76.2;;;;;;;;;
2021/12/11 23:05:10;;;;;;;;;;;0.9;75.6;;;;;;;;;
2021/12/11 23:10:10;;;;;;;;;;;0.8;76.2;;;;;;;;;
2021/12/11 23:15:09;;;;;;;;;;;0.9;76.0;;;;;;;;;
2021/12/11 23:20:12;;;;;;;;;;;0.9;76.1;;;;;;;;;
2021/12/11 23:25:11;;;;;;;;;;;0.9;75.7;;;;;;;;;
2021/12/11 23:30:11;;;;;;;;;;;0.9;76.4;;;;;;;;;
2021/12/11 23:35:10;;;;;;;;;;;0.9;76.6;;;;;;;;;
2021/12/11 23:40:13;;;;;;;;;;;0.9;76.2;;;;;;;;;
2021/12/11 23:45:10;;;;;;;;;;;1.0;76.3;;;;;;;;;
2021/12/11 23:50:08;;;;;;;;;;;1.0;76.7;;;;;;;;;
2021/12/11 23:55:10;;;;;;;;;;;1.1;76.8;;;;;;;;;
